sensor_id;sensor_type;location;lat;lon;timestamp;P1;durP1;ratioP1;P2;durP2;ratioP2
57241;SDS011;43095;53.302;5.786;2023-05-10T00:01:34;8.80;;;7.90;;
57241;SDS011;43095;53.302;5.786;2023-05-10T00:04:01;7.93;;;7.13;;
57241;SDS011;43095;53.302;5.786;2023-05-10T00:06:29;11.77;;;9.43;;
57241;SDS011;43095;53.302;5.786;2023-05-10T00:08:59;8.27;;;7.47;;
57241;SDS011;43095;53.302;5.786;2023-05-10T00:11:27;9.05;;;7.85;;
57241;SDS011;43095;53.302;5.786;2023-05-10T00:13:55;7.63;;;6.93;;
57241;SDS011;43095;53.302;5.786;2023-05-10T00:16:22;7.35;;;6.65;;
57241;SDS011;43095;53.302;5.786;2023-05-10T00:18:49;5.70;;;5.00;;
57241;SDS011;43095;53.302;5.786;2023-05-10T00:21:18;5.85;;;5.07;;
57241;SDS011;43095;53.302;5.786;2023-05-10T00:23:46;3.40;;;3.10;;
57241;SDS011;43095;53.302;5.786;2023-05-10T00:26:13;2.75;;;2.50;;
57241;SDS011;43095;53.302;5.786;2023-05-10T00:28:48;3.00;;;2.50;;
57241;SDS011;43095;53.302;5.786;2023-05-10T00:31:17;3.22;;;2.03;;
57241;SDS011;43095;53.302;5.786;2023-05-10T00:33:44;2.17;;;1.98;;
57241;SDS011;43095;53.302;5.786;2023-05-10T00:36:12;3.17;;;2.30;;
57241;SDS011;43095;53.302;5.786;2023-05-10T00:38:45;3.15;;;2.85;;
57241;SDS011;43095;53.302;5.786;2023-05-10T00:41:13;3.72;;;3.42;;
57241;SDS011;43095;53.302;5.786;2023-05-10T00:43:44;5.80;;;4.82;;
57241;SDS011;43095;53.302;5.786;2023-05-10T00:46:14;5.70;;;5.20;;
57241;SDS011;43095;53.302;5.786;2023-05-10T00:48:43;6.88;;;6.28;;
57241;SDS011;43095;53.302;5.786;2023-05-10T00:51:23;7.20;;;6.60;;
57241;SDS011;43095;53.302;5.786;2023-05-10T00:53:50;8.80;;;7.53;;
57241;SDS011;43095;53.302;5.786;2023-05-10T00:56:18;12.23;;;9.18;;
57241;SDS011;43095;53.302;5.786;2023-05-10T00:58:52;11.00;;;10.00;;
57241;SDS011;43095;53.302;5.786;2023-05-10T01:01:19;12.35;;;10.70;;
57241;SDS011;43095;53.302;5.786;2023-05-10T01:03:47;17.63;;;14.52;;
57241;SDS011;43095;53.302;5.786;2023-05-10T01:06:16;17.58;;;15.77;;
57241;SDS011;43095;53.302;5.786;2023-05-10T01:08:44;21.48;;;16.63;;
57241;SDS011;43095;53.302;5.786;2023-05-10T01:11:11;20.02;;;17.90;;
57241;SDS011;43095;53.302;5.786;2023-05-10T01:13:40;22.35;;;19.63;;
57241;SDS011;43095;53.302;5.786;2023-05-10T01:16:08;26.15;;;20.08;;
57241;SDS011;43095;53.302;5.786;2023-05-10T01:18:36;26.38;;;20.02;;
57241;SDS011;43095;53.302;5.786;2023-05-10T01:23:41;28.13;;;19.75;;
57241;SDS011;43095;53.302;5.786;2023-05-10T01:34:12;14.27;;;12.05;;
57241;SDS011;43095;53.302;5.786;2023-05-10T01:36:45;9.10;;;8.20;;
57241;SDS011;43095;53.302;5.786;2023-05-10T01:41:55;9.68;;;8.73;;
57241;SDS011;43095;53.302;5.786;2023-05-10T01:44:34;12.50;;;9.93;;
57241;SDS011;43095;53.302;5.786;2023-05-10T01:47:04;12.07;;;10.77;;
57241;SDS011;43095;53.302;5.786;2023-05-10T01:49:43;10.82;;;9.63;;
57241;SDS011;43095;53.302;5.786;2023-05-10T01:52:14;10.15;;;9.23;;
57241;SDS011;43095;53.302;5.786;2023-05-10T01:54:44;9.68;;;8.07;;
57241;SDS011;43095;53.302;5.786;2023-05-10T01:57:16;6.43;;;5.82;;
57241;SDS011;43095;53.302;5.786;2023-05-10T01:59:45;5.32;;;3.83;;
57241;SDS011;43095;53.302;5.786;2023-05-10T02:02:18;3.35;;;3.05;;
57241;SDS011;43095;53.302;5.786;2023-05-10T02:04:47;5.32;;;2.90;;
57241;SDS011;43095;53.302;5.786;2023-05-10T02:07:16;4.25;;;3.03;;
57241;SDS011;43095;53.302;5.786;2023-05-10T02:09:46;2.38;;;2.05;;
57241;SDS011;43095;53.302;5.786;2023-05-10T02:12:16;2.35;;;2.15;;
57241;SDS011;43095;53.302;5.786;2023-05-10T02:14:44;2.22;;;1.90;;
57241;SDS011;43095;53.302;5.786;2023-05-10T02:17:14;2.47;;;1.83;;
57241;SDS011;43095;53.302;5.786;2023-05-10T02:19:45;2.50;;;1.90;;
57241;SDS011;43095;53.302;5.786;2023-05-10T02:22:14;4.90;;;2.45;;
57241;SDS011;43095;53.302;5.786;2023-05-10T02:24:46;4.68;;;2.42;;
57241;SDS011;43095;53.302;5.786;2023-05-10T02:27:20;2.60;;;2.08;;
57241;SDS011;43095;53.302;5.786;2023-05-10T02:29:47;1.85;;;1.75;;
57241;SDS011;43095;53.302;5.786;2023-05-10T02:32:17;2.42;;;2.22;;
57241;SDS011;43095;53.302;5.786;2023-05-10T02:34:45;2.28;;;1.85;;
57241;SDS011;43095;53.302;5.786;2023-05-10T02:37:18;2.30;;;2.10;;
57241;SDS011;43095;53.302;5.786;2023-05-10T02:39:47;3.72;;;2.47;;
57241;SDS011;43095;53.302;5.786;2023-05-10T02:42:19;3.27;;;2.97;;
57241;SDS011;43095;53.302;5.786;2023-05-10T02:44:47;4.20;;;3.80;;
57241;SDS011;43095;53.302;5.786;2023-05-10T02:47:18;3.67;;;3.38;;
57241;SDS011;43095;53.302;5.786;2023-05-10T02:49:53;5.82;;;4.18;;
57241;SDS011;43095;53.302;5.786;2023-05-10T02:52:21;6.00;;;4.97;;
57241;SDS011;43095;53.302;5.786;2023-05-10T02:54:55;6.05;;;5.18;;
57241;SDS011;43095;53.302;5.786;2023-05-10T02:57:25;11.02;;;7.55;;
57241;SDS011;43095;53.302;5.786;2023-05-10T02:59:54;15.05;;;9.70;;
57241;SDS011;43095;53.302;5.786;2023-05-10T03:02:25;17.80;;;12.43;;
57241;SDS011;43095;53.302;5.786;2023-05-10T03:04:53;19.38;;;12.35;;
57241;SDS011;43095;53.302;5.786;2023-05-10T03:07:20;31.95;;;17.73;;
57241;SDS011;43095;53.302;5.786;2023-05-10T03:09:52;29.83;;;15.85;;
57241;SDS011;43095;53.302;5.786;2023-05-10T03:12:23;26.65;;;15.02;;
57241;SDS011;43095;53.302;5.786;2023-05-10T03:17:30;26.03;;;15.63;;
57241;SDS011;43095;53.302;5.786;2023-05-10T03:20:04;26.98;;;17.88;;
57241;SDS011;43095;53.302;5.786;2023-05-10T03:22:38;28.50;;;18.77;;
57241;SDS011;43095;53.302;5.786;2023-05-10T03:25:07;24.80;;;18.80;;
57241;SDS011;43095;53.302;5.786;2023-05-10T03:27:36;23.58;;;18.83;;
57241;SDS011;43095;53.302;5.786;2023-05-10T03:30:07;24.20;;;19.65;;
57241;SDS011;43095;53.302;5.786;2023-05-10T03:32:35;18.20;;;14.82;;
57241;SDS011;43095;53.302;5.786;2023-05-10T03:35:07;16.23;;;14.52;;
57241;SDS011;43095;53.302;5.786;2023-05-10T03:37:35;16.60;;;14.85;;
57241;SDS011;43095;53.302;5.786;2023-05-10T03:40:04;17.08;;;13.88;;
57241;SDS011;43095;53.302;5.786;2023-05-10T03:42:34;13.77;;;12.32;;
57241;SDS011;43095;53.302;5.786;2023-05-10T03:45:02;14.75;;;12.98;;
57241;SDS011;43095;53.302;5.786;2023-05-10T03:47:32;13.40;;;11.70;;
57241;SDS011;43095;53.302;5.786;2023-05-10T03:50:00;16.23;;;14.07;;
57241;SDS011;43095;53.302;5.786;2023-05-10T03:52:28;19.60;;;17.33;;
57241;SDS011;43095;53.302;5.786;2023-05-10T03:54:59;21.63;;;19.35;;
57241;SDS011;43095;53.302;5.786;2023-05-10T03:57:30;23.13;;;19.88;;
57241;SDS011;43095;53.302;5.786;2023-05-10T03:59:58;21.08;;;18.88;;
57241;SDS011;43095;53.302;5.786;2023-05-10T04:02:39;19.95;;;17.90;;
57241;SDS011;43095;53.302;5.786;2023-05-10T04:05:11;16.70;;;15.00;;
57241;SDS011;43095;53.302;5.786;2023-05-10T04:07:40;16.33;;;14.65;;
57241;SDS011;43095;53.302;5.786;2023-05-10T04:10:07;14.63;;;13.23;;
57241;SDS011;43095;53.302;5.786;2023-05-10T04:12:36;13.82;;;11.35;;
57241;SDS011;43095;53.302;5.786;2023-05-10T04:15:04;15.55;;;10.60;;
57241;SDS011;43095;53.302;5.786;2023-05-10T04:17:33;13.40;;;11.43;;
57241;SDS011;43095;53.302;5.786;2023-05-10T04:20:00;9.18;;;8.20;;
57241;SDS011;43095;53.302;5.786;2023-05-10T04:22:29;5.90;;;5.25;;
57241;SDS011;43095;53.302;5.786;2023-05-10T04:25:01;4.15;;;3.35;;
57241;SDS011;43095;53.302;5.786;2023-05-10T04:27:29;3.97;;;3.58;;
57241;SDS011;43095;53.302;5.786;2023-05-10T04:29:57;4.57;;;4.18;;
57241;SDS011;43095;53.302;5.786;2023-05-10T04:32:24;5.00;;;4.47;;
57241;SDS011;43095;53.302;5.786;2023-05-10T04:34:52;8.88;;;7.97;;
57241;SDS011;43095;53.302;5.786;2023-05-10T04:37:20;12.45;;;10.30;;
57241;SDS011;43095;53.302;5.786;2023-05-10T04:39:49;11.00;;;9.82;;
57241;SDS011;43095;53.302;5.786;2023-05-10T04:42:27;15.77;;;12.80;;
57241;SDS011;43095;53.302;5.786;2023-05-10T04:44:54;13.27;;;11.93;;
57241;SDS011;43095;53.302;5.786;2023-05-10T04:47:22;18.02;;;14.93;;
57241;SDS011;43095;53.302;5.786;2023-05-10T04:49:53;16.10;;;14.50;;
57241;SDS011;43095;53.302;5.786;2023-05-10T04:52:22;14.82;;;13.32;;
57241;SDS011;43095;53.302;5.786;2023-05-10T04:54:50;15.05;;;13.38;;
57241;SDS011;43095;53.302;5.786;2023-05-10T04:57:19;18.55;;;14.20;;
57241;SDS011;43095;53.302;5.786;2023-05-10T04:59:54;16.92;;;13.85;;
57241;SDS011;43095;53.302;5.786;2023-05-10T05:02:21;13.73;;;12.30;;
57241;SDS011;43095;53.302;5.786;2023-05-10T05:04:50;13.40;;;12.10;;
57241;SDS011;43095;53.302;5.786;2023-05-10T05:07:24;13.27;;;11.88;;
57241;SDS011;43095;53.302;5.786;2023-05-10T05:09:52;14.52;;;11.80;;
57241;SDS011;43095;53.302;5.786;2023-05-10T05:12:19;10.57;;;9.57;;
57241;SDS011;43095;53.302;5.786;2023-05-10T05:14:47;12.57;;;11.13;;
57241;SDS011;43095;53.302;5.786;2023-05-10T05:17:18;12.52;;;10.25;;
57241;SDS011;43095;53.302;5.786;2023-05-10T05:19:45;16.83;;;13.05;;
57241;SDS011;43095;53.302;5.786;2023-05-10T05:22:17;20.58;;;13.95;;
57241;SDS011;43095;53.302;5.786;2023-05-10T05:24:45;15.15;;;12.73;;
57241;SDS011;43095;53.302;5.786;2023-05-10T05:27:15;17.80;;;13.27;;
57241;SDS011;43095;53.302;5.786;2023-05-10T05:29:50;13.90;;;11.18;;
57241;SDS011;43095;53.302;5.786;2023-05-10T05:32:20;12.63;;;10.23;;
57241;SDS011;43095;53.302;5.786;2023-05-10T05:34:48;13.98;;;11.07;;
57241;SDS011;43095;53.302;5.786;2023-05-10T05:37:18;12.55;;;10.07;;
57241;SDS011;43095;53.302;5.786;2023-05-10T05:39:49;12.50;;;10.00;;
57241;SDS011;43095;53.302;5.786;2023-05-10T05:42:16;11.27;;;9.27;;
57241;SDS011;43095;53.302;5.786;2023-05-10T05:44:45;11.00;;;9.02;;
57241;SDS011;43095;53.302;5.786;2023-05-10T05:47:15;12.77;;;8.20;;
57241;SDS011;43095;53.302;5.786;2023-05-10T05:49:42;15.55;;;9.90;;
57241;SDS011;43095;53.302;5.786;2023-05-10T05:52:12;12.27;;;8.48;;
57241;SDS011;43095;53.302;5.786;2023-05-10T05:54:39;10.65;;;7.85;;
57241;SDS011;43095;53.302;5.786;2023-05-10T05:57:07;8.10;;;6.63;;
57241;SDS011;43095;53.302;5.786;2023-05-10T05:59:35;8.75;;;5.75;;
57241;SDS011;43095;53.302;5.786;2023-05-10T06:02:02;8.13;;;5.32;;
57241;SDS011;43095;53.302;5.786;2023-05-10T06:04:30;9.23;;;4.50;;
57241;SDS011;43095;53.302;5.786;2023-05-10T06:06:59;4.78;;;4.22;;
57241;SDS011;43095;53.302;5.786;2023-05-10T06:09:28;5.05;;;4.28;;
57241;SDS011;43095;53.302;5.786;2023-05-10T06:11:56;5.68;;;5.15;;
57241;SDS011;43095;53.302;5.786;2023-05-10T06:14:23;6.72;;;5.78;;
57241;SDS011;43095;53.302;5.786;2023-05-10T06:16:51;6.82;;;5.15;;
57241;SDS011;43095;53.302;5.786;2023-05-10T06:19:18;6.95;;;5.68;;
57241;SDS011;43095;53.302;5.786;2023-05-10T06:21:46;8.00;;;6.32;;
57241;SDS011;43095;53.302;5.786;2023-05-10T06:24:13;8.57;;;6.57;;
57241;SDS011;43095;53.302;5.786;2023-05-10T06:26:43;7.88;;;7.05;;
57241;SDS011;43095;53.302;5.786;2023-05-10T06:29:11;7.63;;;5.97;;
57241;SDS011;43095;53.302;5.786;2023-05-10T06:31:38;6.50;;;5.65;;
57241;SDS011;43095;53.302;5.786;2023-05-10T06:34:06;6.43;;;5.43;;
57241;SDS011;43095;53.302;5.786;2023-05-10T06:36:34;8.77;;;6.63;;
57241;SDS011;43095;53.302;5.786;2023-05-10T06:39:02;10.70;;;6.35;;
57241;SDS011;43095;53.302;5.786;2023-05-10T06:41:29;12.55;;;7.85;;
57241;SDS011;43095;53.302;5.786;2023-05-10T06:43:57;10.13;;;7.93;;
57241;SDS011;43095;53.302;5.786;2023-05-10T06:46:24;10.82;;;7.43;;
57241;SDS011;43095;53.302;5.786;2023-05-10T06:48:52;9.45;;;7.25;;
57241;SDS011;43095;53.302;5.786;2023-05-10T06:51:25;7.97;;;5.90;;
57241;SDS011;43095;53.302;5.786;2023-05-10T06:53:52;7.18;;;5.85;;
57241;SDS011;43095;53.302;5.786;2023-05-10T06:56:20;7.93;;;5.30;;
57241;SDS011;43095;53.302;5.786;2023-05-10T06:58:59;4.70;;;4.13;;
57241;SDS011;43095;53.302;5.786;2023-05-10T07:01:26;5.65;;;4.70;;
57241;SDS011;43095;53.302;5.786;2023-05-10T07:03:56;8.63;;;4.70;;
57241;SDS011;43095;53.302;5.786;2023-05-10T07:06:24;6.25;;;4.70;;
57241;SDS011;43095;53.302;5.786;2023-05-10T07:09:06;9.30;;;5.15;;
57241;SDS011;43095;53.302;5.786;2023-05-10T07:11:39;8.20;;;5.38;;
57241;SDS011;43095;53.302;5.786;2023-05-10T07:14:09;9.45;;;5.00;;
57241;SDS011;43095;53.302;5.786;2023-05-10T07:16:39;7.50;;;5.25;;
57241;SDS011;43095;53.302;5.786;2023-05-10T07:19:09;8.90;;;5.45;;
57241;SDS011;43095;53.302;5.786;2023-05-10T07:21:44;10.07;;;5.75;;
57241;SDS011;43095;53.302;5.786;2023-05-10T07:24:14;9.50;;;5.65;;
57241;SDS011;43095;53.302;5.786;2023-05-10T07:26:41;9.48;;;6.80;;
57241;SDS011;43095;53.302;5.786;2023-05-10T07:29:09;12.27;;;7.80;;
57241;SDS011;43095;53.302;5.786;2023-05-10T07:31:37;10.98;;;7.95;;
57241;SDS011;43095;53.302;5.786;2023-05-10T07:34:08;10.27;;;7.22;;
57241;SDS011;43095;53.302;5.786;2023-05-10T07:36:36;10.38;;;7.32;;
57241;SDS011;43095;53.302;5.786;2023-05-10T07:39:05;9.73;;;7.50;;
57241;SDS011;43095;53.302;5.786;2023-05-10T07:41:33;11.68;;;7.72;;
57241;SDS011;43095;53.302;5.786;2023-05-10T07:44:03;5.78;;;3.85;;
57241;SDS011;43095;53.302;5.786;2023-05-10T07:46:30;3.88;;;3.05;;
57241;SDS011;43095;53.302;5.786;2023-05-10T07:48:58;6.13;;;3.13;;
57241;SDS011;43095;53.302;5.786;2023-05-10T07:51:29;5.93;;;3.38;;
57241;SDS011;43095;53.302;5.786;2023-05-10T07:53:57;2.95;;;2.65;;
57241;SDS011;43095;53.302;5.786;2023-05-10T07:56:26;3.20;;;2.50;;
57241;SDS011;43095;53.302;5.786;2023-05-10T07:58:56;3.80;;;3.20;;
57241;SDS011;43095;53.302;5.786;2023-05-10T08:01:31;5.45;;;3.75;;
57241;SDS011;43095;53.302;5.786;2023-05-10T08:04:00;6.40;;;3.97;;
57241;SDS011;43095;53.302;5.786;2023-05-10T08:06:35;5.80;;;4.68;;
57241;SDS011;43095;53.302;5.786;2023-05-10T08:09:02;9.13;;;5.43;;
57241;SDS011;43095;53.302;5.786;2023-05-10T08:11:31;10.00;;;5.80;;
57241;SDS011;43095;53.302;5.786;2023-05-10T08:14:06;9.40;;;5.68;;
57241;SDS011;43095;53.302;5.786;2023-05-10T08:16:33;6.97;;;5.63;;
57241;SDS011;43095;53.302;5.786;2023-05-10T08:19:01;9.68;;;6.07;;
57241;SDS011;43095;53.302;5.786;2023-05-10T08:21:33;8.43;;;5.43;;
57241;SDS011;43095;53.302;5.786;2023-05-10T08:24:03;6.70;;;5.22;;
57241;SDS011;43095;53.302;5.786;2023-05-10T08:26:35;7.45;;;5.18;;
57241;SDS011;43095;53.302;5.786;2023-05-10T08:29:03;10.45;;;5.05;;
57241;SDS011;43095;53.302;5.786;2023-05-10T08:31:31;6.28;;;4.47;;
57241;SDS011;43095;53.302;5.786;2023-05-10T08:33:59;7.20;;;5.55;;
57241;SDS011;43095;53.302;5.786;2023-05-10T08:36:26;6.55;;;5.47;;
57241;SDS011;43095;53.302;5.786;2023-05-10T08:38:54;7.25;;;5.63;;
57241;SDS011;43095;53.302;5.786;2023-05-10T08:41:24;7.22;;;6.15;;
57241;SDS011;43095;53.302;5.786;2023-05-10T08:43:53;8.90;;;7.20;;
57241;SDS011;43095;53.302;5.786;2023-05-10T08:46:22;7.03;;;6.07;;
57241;SDS011;43095;53.302;5.786;2023-05-10T08:48:58;10.52;;;6.65;;
57241;SDS011;43095;53.302;5.786;2023-05-10T08:51:33;8.38;;;6.55;;
57241;SDS011;43095;53.302;5.786;2023-05-10T08:54:05;10.30;;;6.07;;
57241;SDS011;43095;53.302;5.786;2023-05-10T08:56:33;8.23;;;6.75;;
57241;SDS011;43095;53.302;5.786;2023-05-10T08:59:02;7.30;;;6.07;;
57241;SDS011;43095;53.302;5.786;2023-05-10T09:01:32;7.53;;;6.13;;
57241;SDS011;43095;53.302;5.786;2023-05-10T09:03:59;11.18;;;6.38;;
57241;SDS011;43095;53.302;5.786;2023-05-10T09:06:27;9.63;;;7.13;;
57241;SDS011;43095;53.302;5.786;2023-05-10T09:08:55;10.00;;;7.13;;
57241;SDS011;43095;53.302;5.786;2023-05-10T09:11:23;11.00;;;8.57;;
57241;SDS011;43095;53.302;5.786;2023-05-10T09:13:51;12.00;;;9.15;;
57241;SDS011;43095;53.302;5.786;2023-05-10T09:16:19;17.52;;;12.35;;
57241;SDS011;43095;53.302;5.786;2023-05-10T09:18:50;19.98;;;12.65;;
57241;SDS011;43095;53.302;5.786;2023-05-10T09:21:19;16.05;;;12.13;;
57241;SDS011;43095;53.302;5.786;2023-05-10T09:23:47;19.30;;;12.50;;
57241;SDS011;43095;53.302;5.786;2023-05-10T09:26:17;16.58;;;11.65;;
57241;SDS011;43095;53.302;5.786;2023-05-10T09:28:55;16.48;;;12.27;;
57241;SDS011;43095;53.302;5.786;2023-05-10T09:31:23;16.92;;;11.43;;
57241;SDS011;43095;53.302;5.786;2023-05-10T09:33:52;14.95;;;11.57;;
57241;SDS011;43095;53.302;5.786;2023-05-10T09:36:20;16.70;;;10.70;;
57241;SDS011;43095;53.302;5.786;2023-05-10T09:41:15;17.90;;;11.60;;
57241;SDS011;43095;53.302;5.786;2023-05-10T09:43:43;16.00;;;11.85;;
57241;SDS011;43095;53.302;5.786;2023-05-10T09:46:11;15.88;;;11.57;;
57241;SDS011;43095;53.302;5.786;2023-05-10T09:48:43;11.45;;;9.77;;
57241;SDS011;43095;53.302;5.786;2023-05-10T09:51:18;15.18;;;11.13;;
57241;SDS011;43095;53.302;5.786;2023-05-10T09:53:46;14.50;;;9.88;;
57241;SDS011;43095;53.302;5.786;2023-05-10T09:56:32;13.07;;;10.20;;
57241;SDS011;43095;53.302;5.786;2023-05-10T09:59:04;13.20;;;9.40;;
57241;SDS011;43095;53.302;5.786;2023-05-10T10:01:33;13.93;;;10.52;;
57241;SDS011;43095;53.302;5.786;2023-05-10T10:04:05;13.77;;;8.68;;
57241;SDS011;43095;53.302;5.786;2023-05-10T10:06:36;12.93;;;8.48;;
57241;SDS011;43095;53.302;5.786;2023-05-10T10:09:07;9.02;;;7.55;;
57241;SDS011;43095;53.302;5.786;2023-05-10T10:11:35;12.60;;;8.90;;
57241;SDS011;43095;53.302;5.786;2023-05-10T10:14:03;11.02;;;9.13;;
57241;SDS011;43095;53.302;5.786;2023-05-10T10:16:31;13.15;;;9.88;;
57241;SDS011;43095;53.302;5.786;2023-05-10T10:18:59;14.68;;;10.52;;
57241;SDS011;43095;53.302;5.786;2023-05-10T10:21:28;13.55;;;11.30;;
57241;SDS011;43095;53.302;5.786;2023-05-10T10:23:55;13.35;;;11.57;;
57241;SDS011;43095;53.302;5.786;2023-05-10T10:26:23;16.52;;;13.52;;
57241;SDS011;43095;53.302;5.786;2023-05-10T10:36:26;18.83;;;14.43;;
57241;SDS011;43095;53.302;5.786;2023-05-10T10:46:58;13.25;;;11.32;;
57241;SDS011;43095;53.302;5.786;2023-05-10T10:49:26;15.27;;;11.57;;
57241;SDS011;43095;53.302;5.786;2023-05-10T10:55:09;13.13;;;11.13;;
57241;SDS011;43095;53.302;5.786;2023-05-10T11:02:49;15.30;;;12.20;;
57241;SDS011;43095;53.302;5.786;2023-05-10T11:05:37;13.63;;;11.68;;
57241;SDS011;43095;53.302;5.786;2023-05-10T11:10:52;16.02;;;12.52;;
57241;SDS011;43095;53.302;5.786;2023-05-10T11:13:27;18.13;;;14.45;;
57241;SDS011;43095;53.302;5.786;2023-05-10T11:15:56;19.52;;;14.88;;
57241;SDS011;43095;53.302;5.786;2023-05-10T11:18:27;22.02;;;17.38;;
57241;SDS011;43095;53.302;5.786;2023-05-10T11:20:59;19.15;;;15.13;;
57241;SDS011;43095;53.302;5.786;2023-05-10T11:23:30;17.67;;;13.80;;
57241;SDS011;43095;53.302;5.786;2023-05-10T11:25:59;20.97;;;15.13;;
57241;SDS011;43095;53.302;5.786;2023-05-10T11:28:27;18.55;;;14.65;;
57241;SDS011;43095;53.302;5.786;2023-05-10T11:30:55;19.25;;;15.38;;
57241;SDS011;43095;53.302;5.786;2023-05-10T11:33:22;19.90;;;17.45;;
57241;SDS011;43095;53.302;5.786;2023-05-10T11:35:50;19.30;;;15.57;;
57241;SDS011;43095;53.302;5.786;2023-05-10T11:38:17;17.90;;;13.93;;
57241;SDS011;43095;53.302;5.786;2023-05-10T11:40:45;16.95;;;13.77;;
57241;SDS011;43095;53.302;5.786;2023-05-10T11:43:12;13.93;;;12.00;;
57241;SDS011;43095;53.302;5.786;2023-05-10T11:45:40;14.57;;;11.98;;
57241;SDS011;43095;53.302;5.786;2023-05-10T11:48:08;16.08;;;11.40;;
57241;SDS011;43095;53.302;5.786;2023-05-10T11:50:36;11.65;;;10.32;;
57241;SDS011;43095;53.302;5.786;2023-05-10T11:53:03;15.38;;;11.40;;
57241;SDS011;43095;53.302;5.786;2023-05-10T11:55:33;15.48;;;12.45;;
57241;SDS011;43095;53.302;5.786;2023-05-10T11:58:01;15.70;;;13.05;;
57241;SDS011;43095;53.302;5.786;2023-05-10T12:00:29;17.55;;;14.43;;
57241;SDS011;43095;53.302;5.786;2023-05-10T12:02:56;17.73;;;14.52;;
57241;SDS011;43095;53.302;5.786;2023-05-10T12:05:24;14.27;;;12.43;;
57241;SDS011;43095;53.302;5.786;2023-05-10T12:07:52;15.23;;;13.48;;
57241;SDS011;43095;53.302;5.786;2023-05-10T12:10:24;17.27;;;13.38;;
57241;SDS011;43095;53.302;5.786;2023-05-10T12:15:21;14.00;;;11.63;;
57241;SDS011;43095;53.302;5.786;2023-05-10T12:17:49;13.18;;;10.93;;
57241;SDS011;43095;53.302;5.786;2023-05-10T12:20:20;11.05;;;9.65;;
57241;SDS011;43095;53.302;5.786;2023-05-10T12:22:52;13.55;;;10.80;;
57241;SDS011;43095;53.302;5.786;2023-05-10T12:25:21;12.23;;;10.52;;
57241;SDS011;43095;53.302;5.786;2023-05-10T12:27:53;14.93;;;11.73;;
57241;SDS011;43095;53.302;5.786;2023-05-10T12:30:22;16.20;;;13.80;;
57241;SDS011;43095;53.302;5.786;2023-05-10T12:32:50;25.30;;;15.88;;
57241;SDS011;43095;53.302;5.786;2023-05-10T12:35:17;18.08;;;14.20;;
57241;SDS011;43095;53.302;5.786;2023-05-10T12:37:50;16.95;;;13.60;;
57241;SDS011;43095;53.302;5.786;2023-05-10T12:40:18;17.63;;;14.23;;
57241;SDS011;43095;53.302;5.786;2023-05-10T12:42:45;17.00;;;13.52;;
57241;SDS011;43095;53.302;5.786;2023-05-10T12:45:13;19.70;;;15.55;;
57241;SDS011;43095;53.302;5.786;2023-05-10T12:47:40;21.10;;;16.42;;
57241;SDS011;43095;53.302;5.786;2023-05-10T12:50:09;16.30;;;14.43;;
57241;SDS011;43095;53.302;5.786;2023-05-10T12:52:37;16.83;;;14.18;;
57241;SDS011;43095;53.302;5.786;2023-05-10T12:55:05;16.95;;;14.68;;
57241;SDS011;43095;53.302;5.786;2023-05-10T12:57:33;15.75;;;13.55;;
57241;SDS011;43095;53.302;5.786;2023-05-10T13:00:00;14.63;;;12.25;;
57241;SDS011;43095;53.302;5.786;2023-05-10T13:02:27;15.07;;;12.45;;
57241;SDS011;43095;53.302;5.786;2023-05-10T13:04:55;19.60;;;14.90;;
57241;SDS011;43095;53.302;5.786;2023-05-10T13:07:23;16.40;;;13.00;;
57241;SDS011;43095;53.302;5.786;2023-05-10T13:09:50;12.85;;;11.27;;
57241;SDS011;43095;53.302;5.786;2023-05-10T13:12:21;11.82;;;9.90;;
57241;SDS011;43095;53.302;5.786;2023-05-10T13:14:50;11.43;;;10.20;;
57241;SDS011;43095;53.302;5.786;2023-05-10T13:17:17;12.45;;;10.45;;
57241;SDS011;43095;53.302;5.786;2023-05-10T13:19:45;12.20;;;10.85;;
57241;SDS011;43095;53.302;5.786;2023-05-10T13:22:12;9.68;;;8.68;;
57241;SDS011;43095;53.302;5.786;2023-05-10T13:24:48;9.95;;;8.93;;
57241;SDS011;43095;53.302;5.786;2023-05-10T13:27:16;8.50;;;7.72;;
57241;SDS011;43095;53.302;5.786;2023-05-10T13:29:44;8.10;;;7.30;;
57241;SDS011;43095;53.302;5.786;2023-05-10T13:32:17;8.15;;;7.45;;
57241;SDS011;43095;53.302;5.786;2023-05-10T13:34:49;9.48;;;8.40;;
57241;SDS011;43095;53.302;5.786;2023-05-10T13:37:31;8.25;;;7.50;;
57241;SDS011;43095;53.302;5.786;2023-05-10T13:40:03;8.32;;;7.43;;
57241;SDS011;43095;53.302;5.786;2023-05-10T13:42:31;8.30;;;7.53;;
57241;SDS011;43095;53.302;5.786;2023-05-10T13:45:00;8.15;;;7.40;;
57241;SDS011;43095;53.302;5.786;2023-05-10T13:47:31;9.45;;;8.55;;
57241;SDS011;43095;53.302;5.786;2023-05-10T13:49:58;8.70;;;7.80;;
57241;SDS011;43095;53.302;5.786;2023-05-10T13:52:27;9.50;;;8.02;;
57241;SDS011;43095;53.302;5.786;2023-05-10T13:54:54;9.15;;;8.25;;
57241;SDS011;43095;53.302;5.786;2023-05-10T13:57:22;9.35;;;8.45;;
57241;SDS011;43095;53.302;5.786;2023-05-10T13:59:51;8.55;;;7.63;;
57241;SDS011;43095;53.302;5.786;2023-05-10T14:02:22;8.33;;;7.53;;
57241;SDS011;43095;53.302;5.786;2023-05-10T14:04:51;9.32;;;8.40;;
57241;SDS011;43095;53.302;5.786;2023-05-10T14:07:19;8.57;;;7.78;;
57241;SDS011;43095;53.302;5.786;2023-05-10T14:09:46;9.10;;;8.25;;
57241;SDS011;43095;53.302;5.786;2023-05-10T14:12:14;9.85;;;8.73;;
57241;SDS011;43095;53.302;5.786;2023-05-10T14:14:42;7.03;;;6.32;;
57241;SDS011;43095;53.302;5.786;2023-05-10T14:17:10;7.05;;;6.07;;
57241;SDS011;43095;53.302;5.786;2023-05-10T14:19:38;6.63;;;6.13;;
57241;SDS011;43095;53.302;5.786;2023-05-10T14:22:05;6.75;;;6.15;;
57241;SDS011;43095;53.302;5.786;2023-05-10T14:24:33;6.05;;;5.55;;
57241;SDS011;43095;53.302;5.786;2023-05-10T14:27:00;6.60;;;5.95;;
57241;SDS011;43095;53.302;5.786;2023-05-10T14:29:28;6.22;;;5.68;;
57241;SDS011;43095;53.302;5.786;2023-05-10T14:31:58;6.20;;;5.70;;
57241;SDS011;43095;53.302;5.786;2023-05-10T14:34:26;6.40;;;5.80;;
57241;SDS011;43095;53.302;5.786;2023-05-10T14:36:54;6.97;;;6.43;;
57241;SDS011;43095;53.302;5.786;2023-05-10T14:39:21;6.63;;;6.03;;
57241;SDS011;43095;53.302;5.786;2023-05-10T14:41:49;7.22;;;6.57;;
57241;SDS011;43095;53.302;5.786;2023-05-10T14:44:18;8.35;;;7.43;;
57241;SDS011;43095;53.302;5.786;2023-05-10T14:46:47;6.63;;;6.05;;
57241;SDS011;43095;53.302;5.786;2023-05-10T14:49:16;7.57;;;6.88;;
57241;SDS011;43095;53.302;5.786;2023-05-10T14:51:43;8.20;;;7.40;;
57241;SDS011;43095;53.302;5.786;2023-05-10T14:54:13;8.35;;;7.50;;
57241;SDS011;43095;53.302;5.786;2023-05-10T14:56:40;9.13;;;8.00;;
57241;SDS011;43095;53.302;5.786;2023-05-10T14:59:08;9.05;;;8.18;;
57241;SDS011;43095;53.302;5.786;2023-05-10T15:01:36;9.10;;;8.20;;
57241;SDS011;43095;53.302;5.786;2023-05-10T15:04:04;8.90;;;8.05;;
57241;SDS011;43095;53.302;5.786;2023-05-10T15:06:33;7.32;;;6.70;;
57241;SDS011;43095;53.302;5.786;2023-05-10T15:09:01;9.38;;;7.35;;
57241;SDS011;43095;53.302;5.786;2023-05-10T15:11:32;8.53;;;7.73;;
57241;SDS011;43095;53.302;5.786;2023-05-10T15:14:00;8.57;;;7.57;;
57241;SDS011;43095;53.302;5.786;2023-05-10T15:16:28;9.10;;;8.20;;
57241;SDS011;43095;53.302;5.786;2023-05-10T15:19:10;11.77;;;9.15;;
57241;SDS011;43095;53.302;5.786;2023-05-10T15:21:37;9.00;;;8.15;;
57241;SDS011;43095;53.302;5.786;2023-05-10T15:24:05;9.30;;;7.90;;
57241;SDS011;43095;53.302;5.786;2023-05-10T15:26:36;10.05;;;9.05;;
57241;SDS011;43095;53.302;5.786;2023-05-10T15:29:04;13.40;;;11.38;;
57241;SDS011;43095;53.302;5.786;2023-05-10T15:31:31;11.55;;;10.30;;
57241;SDS011;43095;53.302;5.786;2023-05-10T15:34:06;10.30;;;9.30;;
57241;SDS011;43095;53.302;5.786;2023-05-10T15:36:39;10.27;;;9.27;;